Time;durP1;ratioP1;P1;durP2;ratioP2;P2;SDS_P1;SDS_P2;PMS_P1;PMS_P2;Temp;Humidity;BMP_temperature;BMP_pressure;BME280_temperature;BME280_humidity;BME280_pressure;Samples;Min_cycle;Max_cycle;Signal;HPM_P1;HPM_P2
2021/10/14 00:01:33;;;;;;;1.83;0.55;;;17.10;90.40;;;;;;4774300;30;20048;-60
2021/10/14 00:03:59;;;;;;;3.28;0.73;;;17.10;90.40;;;;;;4771968;29;20108;-60
2021/10/14 00:06:24;;;;;;;1.90;0.90;;;17.10;90.50;;;;;;4773439;30;20055;-60
2021/10/14 00:08:50;;;;;;;1.85;0.70;;;17.10;90.50;;;;;;4772057;30;20046;-60
2021/10/14 00:11:16;;;;;;;0.93;0.30;;;17.10;90.50;;;;;;4778383;30;20040;-60
2021/10/14 00:13:42;;;;;;;1.33;0.40;;;17.20;90.50;;;;;;4778529;30;20062;-61
2021/10/14 00:16:08;;;;;;;2.80;1.42;;;17.30;90.40;;;;;;4772186;30;20048;-60
2021/10/14 00:18:33;;;;;;;1.17;0.30;;;17.30;90.30;;;;;;4774726;30;20059;-60
2021/10/14 00:20:59;;;;;;;0.70;0.30;;;17.40;90.30;;;;;;4773539;30;20048;-60
2021/10/14 00:23:25;;;;;;;1.20;0.30;;;17.40;90.20;;;;;;4772555;30;20035;-60
2021/10/14 00:25:51;;;;;;;2.88;0.57;;;17.40;90.20;;;;;;4777763;30;20071;-60
2021/10/14 00:28:16;;;;;;;3.35;0.65;;;17.40;90.10;;;;;;4774297;30;20070;-61
2021/10/14 00:30:42;;;;;;;1.73;0.38;;;17.50;90.20;;;;;;4772692;30;20044;-60
2021/10/14 00:33:08;;;;;;;2.47;0.35;;;17.50;90.10;;;;;;4773745;30;20204;-60
2021/10/14 00:35:33;;;;;;;1.60;0.57;;;17.50;90.00;;;;;;4773716;30;20051;-60
2021/10/14 00:37:59;;;;;;;1.75;1.05;;;17.60;89.90;;;;;;4778027;30;20045;-60
2021/10/14 00:40:25;;;;;;;1.55;0.40;;;17.70;89.80;;;;;;4773053;30;20135;-60
2021/10/14 00:42:52;;;;;;;1.27;0.45;;;17.70;89.60;;;;;;4772902;30;20428;-60
2021/10/14 00:45:17;;;;;;;2.47;0.77;;;17.70;89.40;;;;;;4771739;30;20051;-60
2021/10/14 00:47:43;;;;;;;3.58;0.80;;;17.70;89.20;;;;;;4772745;30;20043;-60
2021/10/14 00:50:09;;;;;;;3.28;0.47;;;17.70;89.10;;;;;;4774438;30;20450;-60
2021/10/14 00:52:38;;;;;;;1.50;0.40;;;17.70;89.00;;;;;;4771856;30;20051;-60
2021/10/14 00:55:05;;;;;;;2.33;0.70;;;17.80;89.00;;;;;;4756433;30;20113;-60
2021/10/14 00:57:30;;;;;;;3.30;1.08;;;17.80;88.90;;;;;;4773323;30;20122;-60
2021/10/14 00:59:57;;;;;;;3.60;1.25;;;17.70;88.90;;;;;;4777226;30;20127;-61
2021/10/14 01:02:23;;;;;;;3.92;0.70;;;17.70;88.80;;;;;;4757173;30;20039;-60
2021/10/14 01:04:48;;;;;;;2.45;0.52;;;17.60;88.80;;;;;;4773189;30;20036;-60
2021/10/14 01:07:14;;;;;;;3.45;0.60;;;17.60;88.80;;;;;;4772068;30;20146;-60
2021/10/14 01:09:40;;;;;;;2.38;0.60;;;17.50;89.00;;;;;;4774330;30;20076;-60
2021/10/14 01:12:07;;;;;;;6.97;1.08;;;17.50;89.10;;;;;;4772921;30;20058;-60
2021/10/14 01:14:34;;;;;;;2.92;0.75;;;17.50;89.10;;;;;;4772799;30;20046;-60
2021/10/14 01:17:00;;;;;;;2.42;0.50;;;17.40;89.10;;;;;;4776792;29;20044;-60
2021/10/14 01:19:26;;;;;;;3.25;0.60;;;17.40;89.20;;;;;;4777214;30;20112;-60
2021/10/14 01:21:53;;;;;;;4.57;0.70;;;17.40;89.20;;;;;;4774778;30;20043;-60
2021/10/14 01:24:19;;;;;;;1.73;0.68;;;17.40;89.20;;;;;;4775927;30;20149;-60
2021/10/14 01:26:45;;;;;;;2.60;1.13;;;17.30;89.20;;;;;;4777544;30;20132;-60
2021/10/14 01:29:11;;;;;;;2.30;0.50;;;17.20;89.80;;;;;;4775613;30;20067;-60
2021/10/14 01:31:37;;;;;;;4.00;0.70;;;17.30;89.40;;;;;;4780451;30;20047;-60
2021/10/14 01:34:03;;;;;;;5.68;1.10;;;17.30;89.30;;;;;;4774818;30;20058;-60
2021/10/14 01:36:29;;;;;;;3.72;0.90;;;17.20;89.30;;;;;;4776088;30;20051;-61
2021/10/14 01:38:55;;;;;;;3.72;0.90;;;17.10;89.90;;;;;;4776780;30;20432;-60
2021/10/14 01:41:20;;;;;;;2.53;0.90;;;17.10;89.60;;;;;;4774849;29;20055;-60
2021/10/14 01:43:46;;;;;;;5.45;1.13;;;17.00;90.10;;;;;;4778007;30;20055;-61
2021/10/14 01:46:13;;;;;;;5.65;1.10;;;17.00;89.90;;;;;;4775843;30;20055;-60
2021/10/14 01:48:39;;;;;;;7.05;1.15;;;17.00;90.00;;;;;;4775305;30;20057;-66
2021/10/14 01:51:05;;;;;;;6.30;0.93;;;17.00;90.00;;;;;;4774146;30;20137;-66
2021/10/14 01:53:31;;;;;;;4.53;1.20;;;16.90;90.10;;;;;;4776462;30;20054;-66
2021/10/14 01:55:57;;;;;;;5.43;1.33;;;16.90;90.30;;;;;;4776309;30;20059;-66
2021/10/14 01:58:23;;;;;;;6.60;1.40;;;16.80;90.30;;;;;;4776982;30;20673;-66
2021/10/14 02:00:51;;;;;;;4.72;1.10;;;16.80;90.40;;;;;;4775872;30;20054;-67
2021/10/14 02:03:18;;;;;;;4.90;1.20;;;16.80;90.50;;;;;;4775527;30;20137;-66
2021/10/14 02:05:44;;;;;;;3.70;0.98;;;16.80;90.40;;;;;;4775880;30;20138;-66
2021/10/14 02:08:10;;;;;;;4.45;0.90;;;16.80;90.40;;;;;;4780283;30;20096;-66
2021/10/14 02:10:36;;;;;;;8.70;1.65;;;16.90;90.30;;;;;;4780537;30;20054;-66
2021/10/14 02:13:03;;;;;;;4.35;1.15;;;16.80;90.20;;;;;;4774479;30;20051;-66
2021/10/14 02:15:28;;;;;;;4.82;0.82;;;16.70;90.30;;;;;;4773715;30;20051;-66
2021/10/14 02:17:54;;;;;;;3.03;1.08;;;16.70;90.40;;;;;;4776094;30;21009;-66
2021/10/14 02:20:21;;;;;;;6.07;1.10;;;16.70;90.40;;;;;;4776627;30;20079;-66
2021/10/14 02:22:47;;;;;;;5.10;1.15;;;16.70;90.30;;;;;;4775526;30;20055;-66
2021/10/14 02:25:14;;;;;;;4.20;1.08;;;16.70;90.10;;;;;;4773821;30;20096;-68
2021/10/14 02:27:40;;;;;;;6.18;0.90;;;16.70;90.00;;;;;;4775256;29;20480;-68
2021/10/14 02:30:07;;;;;;;8.25;1.55;;;16.70;89.90;;;;;;4779737;30;20117;-67
2021/10/14 02:32:33;;;;;;;4.35;1.00;;;16.70;89.80;;;;;;4775416;30;20575;-67
2021/10/14 02:34:59;;;;;;;7.30;1.08;;;16.70;89.70;;;;;;4774665;30;20081;-68
2021/10/14 02:37:26;;;;;;;4.68;0.90;;;16.80;89.50;;;;;;4774665;30;20039;-67
2021/10/14 02:39:52;;;;;;;4.70;1.00;;;16.70;89.40;;;;;;4772755;30;20089;-66
2021/10/14 02:42:18;;;;;;;6.32;1.10;;;16.70;89.30;;;;;;4774027;29;20066;-66
2021/10/14 02:44:43;;;;;;;6.93;1.35;;;16.70;89.20;;;;;;4776180;30;20135;-67
2021/10/14 02:47:10;;;;;;;2.28;0.90;;;16.70;89.30;;;;;;4775338;30;20055;-66
2021/10/14 02:49:36;;;;;;;5.95;1.42;;;16.70;89.20;;;;;;4775770;30;20050;-66
2021/10/14 02:52:02;;;;;;;4.97;1.00;;;16.60;89.20;;;;;;4774896;30;20056;-66
2021/10/14 02:54:28;;;;;;;6.95;2.13;;;16.60;89.30;;;;;;4773892;30;20058;-66
2021/10/14 02:56:53;;;;;;;5.07;1.10;;;16.60;89.40;;;;;;4775823;30;20055;-67
2021/10/14 02:59:19;;;;;;;5.18;1.02;;;16.60;89.40;;;;;;4774995;29;20109;-66
2021/10/14 03:01:45;;;;;;;4.15;1.35;;;16.50;89.60;;;;;;4775931;30;20047;-66
2021/10/14 03:04:10;;;;;;;4.97;1.55;;;16.40;90.00;;;;;;4773914;30;20386;-66
2021/10/14 03:06:36;;;;;;;6.35;1.20;;;16.40;90.00;;;;;;4775726;30;20062;-66
2021/10/14 03:09:02;;;;;;;2.55;0.90;;;16.40;90.00;;;;;;4775058;30;20175;-66
2021/10/14 03:11:27;;;;;;;7.57;1.38;;;16.50;90.00;;;;;;4774737;30;20043;-66
2021/10/14 03:13:53;;;;;;;3.08;0.70;;;16.60;89.90;;;;;;4758289;30;20055;-67
2021/10/14 03:16:19;;;;;;;7.25;1.42;;;16.60;89.50;;;;;;4774633;30;20047;-66
2021/10/14 03:18:44;;;;;;;6.85;1.20;;;16.60;89.50;;;;;;4774982;30;20051;-66
2021/10/14 03:21:10;;;;;;;4.30;1.52;;;16.60;89.40;;;;;;4775309;30;20137;-66
2021/10/14 03:23:36;;;;;;;6.07;1.50;;;16.60;89.50;;;;;;4774922;30;20039;-66
2021/10/14 03:26:04;;;;;;;3.83;1.33;;;16.60;89.50;;;;;;4778943;30;20081;-66
2021/10/14 03:28:31;;;;;;;5.68;1.27;;;16.50;89.50;;;;;;4773787;30;20118;-67
2021/10/14 03:30:57;;;;;;;3.88;1.10;;;16.50;89.60;;;;;;4774809;30;20044;-66
2021/10/14 03:33:23;;;;;;;3.90;1.20;;;16.30;89.70;;;;;;4775081;30;20043;-66
2021/10/14 03:35:49;;;;;;;6.38;1.48;;;16.30;90.00;;;;;;4773371;30;20514;-65
2021/10/14 03:38:15;;;;;;;2.50;1.20;;;16.20;90.10;;;;;;4774639;29;20051;-67
2021/10/14 03:40:41;;;;;;;3.75;1.00;;;16.20;90.30;;;;;;4773821;29;20101;-67
2021/10/14 03:43:07;;;;;;;2.90;0.95;;;16.20;90.40;;;;;;4775222;30;20055;-66
2021/10/14 03:45:33;;;;;;;1.95;0.80;;;16.20;90.50;;;;;;4775545;30;20043;-67
2021/10/14 03:47:58;;;;;;;6.22;1.77;;;16.20;90.50;;;;;;4774030;30;20097;-67
2021/10/14 03:50:24;;;;;;;3.05;1.17;;;16.30;90.50;;;;;;4774030;30;20959;-66
2021/10/14 03:52:50;;;;;;;5.32;1.40;;;16.40;90.30;;;;;;4778453;30;20051;-65
2021/10/14 03:55:15;;;;;;;3.55;0.82;;;16.40;90.30;;;;;;4774446;30;20044;-65
2021/10/14 03:57:41;;;;;;;1.85;0.75;;;16.40;90.40;;;;;;4772817;30;20145;-67
2021/10/14 04:00:08;;;;;;;4.78;1.13;;;16.50;90.40;;;;;;4773179;30;20054;-66
2021/10/14 04:02:34;;;;;;;4.30;0.90;;;16.50;90.20;;;;;;4744908;30;20526;-66
2021/10/14 04:04:59;;;;;;;6.38;1.40;;;16.60;90.10;;;;;;4773957;30;20035;-66
2021/10/14 04:07:25;;;;;;;4.90;1.60;;;16.60;90.00;;;;;;4773614;30;20043;-70
2021/10/14 04:09:51;;;;;;;4.82;1.50;;;16.60;89.80;;;;;;4758298;30;20973;-71
2021/10/14 04:12:16;;;;;;;5.65;2.03;;;16.40;89.70;;;;;;4758208;30;20055;-71
2021/10/14 04:14:43;;;;;;;2.38;1.35;;;16.10;90.10;;;;;;4778326;30;20515;-71
2021/10/14 04:17:08;;;;;;;5.68;1.75;;;15.70;90.60;;;;;;4773078;30;20070;-71
2021/10/14 04:19:34;;;;;;;5.70;1.60;;;15.40;91.10;;;;;;4773781;30;20047;-71
2021/10/14 04:22:00;;;;;;;5.57;1.75;;;15.20;91.50;;;;;;4778296;30;20517;-70
2021/10/14 04:24:28;;;;;;;4.70;1.70;;;15.00;91.90;;;;;;4757223;30;20055;-71
2021/10/14 04:26:54;;;;;;;6.35;1.90;;;14.90;92.20;;;;;;4757504;30;20109;-72
2021/10/14 04:29:20;;;;;;;5.88;2.08;;;14.70;92.50;;;;;;4772970;30;20504;-71
2021/10/14 04:31:46;;;;;;;7.15;2.00;;;14.60;92.80;;;;;;4762604;30;20047;-71
2021/10/14 04:34:12;;;;;;;3.92;1.90;;;14.50;93.10;;;;;;4757176;30;20090;-71
2021/10/14 04:36:38;;;;;;;5.80;1.85;;;14.40;93.30;;;;;;4772975;30;20508;-71
2021/10/14 04:39:07;;;;;;;10.45;2.67;;;14.40;93.50;;;;;;4772155;30;20053;-71
2021/10/14 04:41:34;;;;;;;5.25;2.35;;;14.40;93.70;;;;;;4757313;30;20048;-71
2021/10/14 04:43:59;;;;;;;4.18;2.00;;;14.30;93.80;;;;;;4777838;30;20060;-71
2021/10/14 04:46:25;;;;;;;7.13;2.30;;;14.20;93.90;;;;;;4772501;30;20057;-71
2021/10/14 04:48:51;;;;;;;5.90;2.80;;;14.10;94.00;;;;;;4771866;30;20054;-72
2021/10/14 04:51:17;;;;;;;6.30;2.95;;;14.10;94.20;;;;;;4771676;30;20143;-71
2021/10/14 04:53:42;;;;;;;7.80;2.75;;;14.00;94.40;;;;;;4772945;30;20056;-71
2021/10/14 04:56:08;;;;;;;4.68;2.38;;;14.00;94.60;;;;;;4772246;30;20055;-71
2021/10/14 04:58:34;;;;;;;5.45;2.38;;;13.90;94.70;;;;;;4771359;30;20472;-71
2021/10/14 05:01:00;;;;;;;5.65;3.30;;;13.90;94.80;;;;;;4772168;30;20047;-72
2021/10/14 05:03:26;;;;;;;6.72;3.60;;;13.90;94.80;;;;;;4748333;30;20489;-71
2021/10/14 05:05:51;;;;;;;6.57;2.95;;;13.90;95.00;;;;;;4762112;30;20413;-71
2021/10/14 05:08:17;;;;;;;6.22;3.10;;;13.80;95.10;;;;;;4773625;30;20527;-71
2021/10/14 05:10:43;;;;;;;5.90;2.95;;;13.90;95.10;;;;;;4773224;30;20526;-71
2021/10/14 05:13:09;;;;;;;8.15;2.92;;;13.80;95.10;;;;;;4756440;30;20705;-71
2021/10/14 05:15:38;;;;;;;6.18;3.10;;;13.80;95.20;;;;;;4771996;30;20055;-72
2021/10/14 05:18:04;;;;;;;7.57;3.15;;;13.80;95.30;;;;;;4743392;30;20051;-72
2021/10/14 05:20:30;;;;;;;7.97;3.20;;;13.80;95.40;;;;;;4778293;30;20055;-72
2021/10/14 05:22:56;;;;;;;48.58;5.70;;;13.70;95.50;;;;;;4772874;30;20052;-72
2021/10/14 05:25:21;;;;;;;5.63;3.08;;;13.70;95.60;;;;;;4773161;30;20123;-71
2021/10/14 05:27:47;;;;;;;8.00;3.13;;;13.70;95.70;;;;;;4777633;30;20062;-72
2021/10/14 05:30:13;;;;;;;7.82;3.42;;;13.70;95.80;;;;;;4773349;30;20118;-72
2021/10/14 05:32:39;;;;;;;9.27;3.17;;;13.70;95.80;;;;;;4773039;30;20054;-72
2021/10/14 05:35:05;;;;;;;11.60;4.35;;;13.70;95.90;;;;;;4741216;30;20492;-71
2021/10/14 05:37:30;;;;;;;9.57;4.18;;;13.70;96.00;;;;;;4772393;30;20148;-72
2021/10/14 05:39:56;;;;;;;9.60;3.97;;;13.70;96.00;;;;;;4772872;30;20043;-72
2021/10/14 05:42:22;;;;;;;5.40;3.30;;;13.60;96.10;;;;;;4762347;30;20055;-72
2021/10/14 05:44:48;;;;;;;5.68;3.47;;;13.70;96.20;;;;;;4762787;30;20047;-71
2021/10/14 05:47:14;;;;;;;6.15;3.00;;;13.60;96.20;;;;;;4761618;30;20036;-72
2021/10/14 05:49:39;;;;;;;8.23;3.28;;;13.70;96.30;;;;;;4772214;30;20052;-73
2021/10/14 05:52:05;;;;;;;9.25;3.30;;;13.70;96.30;;;;;;4772693;30;20051;-72
2021/10/14 05:54:32;;;;;;;8.93;4.13;;;13.60;96.30;;;;;;4772726;30;20132;-71
2021/10/14 05:56:58;;;;;;;6.28;3.50;;;13.70;96.40;;;;;;4771801;30;20058;-72
2021/10/14 05:59:25;;;;;;;9.93;3.60;;;13.70;96.40;;;;;;4758102;30;20051;-72
2021/10/14 06:01:51;;;;;;;9.02;3.42;;;13.70;96.40;;;;;;4772142;29;20063;-72
2021/10/14 06:04:17;;;;;;;10.27;3.72;;;13.70;96.40;;;;;;4761972;30;20054;-74
2021/10/14 06:06:43;;;;;;;8.50;3.70;;;13.70;96.40;;;;;;4760929;30;20587;-72
2021/10/14 06:09:08;;;;;;;8.63;3.67;;;13.70;96.50;;;;;;4760687;30;20051;-71
2021/10/14 06:11:34;;;;;;;8.20;3.80;;;13.70;96.50;;;;;;4777262;30;20079;-70
2021/10/14 06:14:00;;;;;;;8.55;3.90;;;13.70;96.50;;;;;;4776607;30;20047;-72
2021/10/14 06:16:25;;;;;;;5.63;3.30;;;13.70;96.60;;;;;;4776098;30;20059;-73
2021/10/14 06:18:51;;;;;;;6.15;3.30;;;13.70;96.60;;;;;;4778386;30;20051;-74
2021/10/14 06:21:17;;;;;;;11.43;4.00;;;13.70;96.60;;;;;;4764164;30;20068;-73
2021/10/14 06:23:44;;;;;;;9.93;4.03;;;13.70;96.70;;;;;;4778824;30;20089;-69
2021/10/14 06:26:09;;;;;;;6.72;4.10;;;13.70;96.70;;;;;;4764895;30;20382;-68
2021/10/14 06:28:35;;;;;;;7.90;3.72;;;13.70;96.70;;;;;;4773928;30;20104;-70
2021/10/14 06:31:01;;;;;;;7.28;4.10;;;13.70;96.80;;;;;;4774730;30;20047;-70
2021/10/14 06:33:27;;;;;;;8.75;3.80;;;13.70;96.80;;;;;;4759367;30;20071;-70
2021/10/14 06:35:53;;;;;;;8.70;4.13;;;13.70;96.90;;;;;;4779162;30;20550;-70
2021/10/14 06:38:18;;;;;;;6.45;3.95;;;13.80;96.90;;;;;;4772780;30;20056;-70
2021/10/14 06:40:44;;;;;;;9.20;4.43;;;13.70;96.90;;;;;;4773026;29;20055;-71
2021/10/14 06:43:10;;;;;;;7.70;3.97;;;13.80;97.00;;;;;;4778859;30;20134;-70
2021/10/14 06:45:36;;;;;;;10.10;4.00;;;13.80;97.00;;;;;;4774808;30;20047;-70
2021/10/14 06:48:02;;;;;;;8.88;4.00;;;13.70;97.00;;;;;;4778923;30;20082;-70
2021/10/14 06:50:30;;;;;;;7.15;4.30;;;13.70;97.10;;;;;;4770217;29;20073;-70
2021/10/14 06:52:56;;;;;;;8.93;4.45;;;13.70;97.10;;;;;;4773926;30;20070;-70
2021/10/14 06:55:21;;;;;;;7.78;4.32;;;13.80;97.10;;;;;;4772826;30;20063;-70
2021/10/14 06:57:47;;;;;;;9.23;4.45;;;13.80;97.20;;;;;;4787559;29;20157;-70
2021/10/14 07:00:13;;;;;;;9.13;4.35;;;13.80;97.20;;;;;;4773896;30;20129;-70
2021/10/14 07:02:39;;;;;;;11.07;4.85;;;13.80;97.10;;;;;;4757601;30;20054;-70
2021/10/14 07:05:05;;;;;;;7.55;4.18;;;13.80;97.10;;;;;;4774512;30;20036;-70
2021/10/14 07:07:31;;;;;;;10.80;4.95;;;13.90;97.10;;;;;;4774826;30;20889;-70
2021/10/14 07:09:56;;;;;;;7.90;5.18;;;13.90;97.10;;;;;;4772812;30;20039;-70
2021/10/14 07:12:27;;;;;;;7.13;4.47;;;13.90;97.00;;;;;;4787626;29;20078;-70
2021/10/14 07:14:54;;;;;;;9.57;4.80;;;13.90;97.10;;;;;;4742498;30;20047;-70
2021/10/14 07:17:20;;;;;;;9.07;4.75;;;13.90;97.10;;;;;;4777453;30;20054;-70
2021/10/14 07:19:46;;;;;;;8.20;4.95;;;13.90;97.00;;;;;;4773916;30;20075;-70
2021/10/14 07:22:12;;;;;;;9.55;5.40;;;13.90;96.90;;;;;;4773608;30;20131;-70
2021/10/14 07:24:38;;;;;;;11.25;5.05;;;14.00;96.80;;;;;;4771984;30;20508;-70
2021/10/14 07:27:07;;;;;;;10.57;5.43;;;14.00;96.70;;;;;;4758165;30;20587;-70
2021/10/14 07:29:34;;;;;;;15.00;5.63;;;14.00;96.60;;;;;;4773448;30;20069;-71
2021/10/14 07:32:00;;;;;;;10.43;5.32;;;14.00;96.40;;;;;;4772967;30;20062;-67
2021/10/14 07:34:25;;;;;;;7.40;5.07;;;14.10;96.20;;;;;;4772838;30;20051;-70
2021/10/14 07:36:51;;;;;;;9.50;5.47;;;14.10;96.00;;;;;;4760325;30;20047;-70
2021/10/14 07:39:18;;;;;;;9.15;5.45;;;14.20;95.80;;;;;;4773432;30;20142;-69
2021/10/14 07:41:47;;;;;;;12.43;5.97;;;14.20;95.60;;;;;;4778620;29;20065;-70
2021/10/14 07:44:14;;;;;;;12.35;6.07;;;14.30;95.40;;;;;;4772262;30;20055;-70
2021/10/14 07:46:40;;;;;;;11.20;6.28;;;14.30;95.20;;;;;;4757915;30;20062;-68
2021/10/14 07:49:06;;;;;;;11.02;6.25;;;14.30;94.90;;;;;;4772061;29;20043;-67
2021/10/14 07:51:32;;;;;;;9.05;6.20;;;14.40;94.50;;;;;;4778881;30;20461;-67
2021/10/14 07:53:58;;;;;;;10.10;6.30;;;14.30;94.30;;;;;;4774034;30;20051;-67
2021/10/14 07:56:23;;;;;;;11.52;6.78;;;14.40;94.30;;;;;;4778255;30;20193;-67
2021/10/14 07:58:50;;;;;;;10.23;6.53;;;14.30;94.20;;;;;;4772571;30;20051;-67
2021/10/14 08:01:15;;;;;;;9.93;6.70;;;14.30;94.10;;;;;;4743510;30;20043;-68
2021/10/14 08:03:41;;;;;;;11.98;6.97;;;14.30;94.20;;;;;;4762250;30;20566;-69
2021/10/14 08:06:07;;;;;;;12.02;6.70;;;14.30;94.20;;;;;;4774189;30;20051;-69
2021/10/14 08:08:33;;;;;;;10.98;6.40;;;14.30;94.20;;;;;;4772995;30;20520;-69
2021/10/14 08:10:59;;;;;;;8.73;6.57;;;14.40;94.20;;;;;;4768787;29;20074;-69
2021/10/14 08:13:24;;;;;;;11.48;3.88;;;14.40;94.20;;;;;;4767097;30;20078;-66
2021/10/14 08:15:52;;;;;;;9.50;4.18;;;14.50;94.50;;;;;;4753735;30;20066;-66
2021/10/14 08:18:20;;;;;;;10.23;3.63;;;14.60;94.50;;;;;;4769166;30;20457;-66
2021/10/14 08:20:47;;;;;;;7.07;5.43;;;14.80;94.30;;;;;;4769898;30;20071;-66
2021/10/14 08:23:13;;;;;;;7.55;4.10;;;15.10;93.90;;;;;;4768548;30;20063;-67
2021/10/14 08:25:39;;;;;;;11.10;6.13;;;15.20;93.40;;;;;;4754509;30;20650;-66
2021/10/14 08:28:05;;;;;;;8.82;4.68;;;15.40;93.30;;;;;;4771949;30;20051;-66
2021/10/14 08:30:30;;;;;;;18.52;6.13;;;15.60;93.00;;;;;;4771632;30;20062;-67
2021/10/14 08:32:56;;;;;;;18.83;5.75;;;15.90;93.80;;;;;;4768987;29;20047;-67
2021/10/14 08:35:23;;;;;;;13.93;5.03;;;16.20;94.10;;;;;;4764486;29;20462;-68
2021/10/14 08:37:49;;;;;;;8.82;5.55;;;16.40;93.30;;;;;;4773022;30;20136;-68
2021/10/14 08:40:16;;;;;;;10.75;4.35;;;16.50;92.80;;;;;;4772815;30;20047;-67
2021/10/14 08:42:42;;;;;;;9.60;4.43;;;16.40;92.80;;;;;;4772499;29;20053;-67
2021/10/14 08:45:11;;;;;;;7.57;3.63;;;16.40;92.90;;;;;;4772992;30;20125;-67
2021/10/14 08:47:38;;;;;;;12.27;5.55;;;16.40;92.90;;;;;;4773907;29;20499;-67
2021/10/14 08:50:05;;;;;;;9.63;4.35;;;16.40;92.10;;;;;;4773853;29;20131;-67
2021/10/14 08:52:31;;;;;;;11.40;5.50;;;16.40;92.10;;;;;;4773272;30;20043;-67
2021/10/14 08:54:57;;;;;;;9.50;4.43;;;16.40;92.00;;;;;;4772491;30;20089;-67
2021/10/14 08:57:23;;;;;;;7.78;5.18;;;16.40;92.20;;;;;;4774048;30;20102;-67
2021/10/14 08:59:49;;;;;;;9.88;4.85;;;16.60;91.80;;;;;;4773504;30;20470;-67
2021/10/14 09:02:19;;;;;;;10.55;5.35;;;16.60;91.70;;;;;;4774147;30;20054;-67
2021/10/14 09:04:47;;;;;;;10.00;5.13;;;16.70;91.60;;;;;;4770794;30;20062;-67
2021/10/14 09:07:14;;;;;;;8.95;4.47;;;16.80;90.90;;;;;;4772715;30;20129;-67
2021/10/14 09:09:41;;;;;;;8.13;4.15;;;16.80;91.00;;;;;;4774503;30;20055;-68
2021/10/14 09:12:07;;;;;;;7.78;4.68;;;16.90;91.30;;;;;;4773644;30;20560;-67
2021/10/14 09:14:50;;;;;;;6.95;4.15;;;17.00;90.50;;;;;;4774673;30;20108;-68
2021/10/14 09:17:16;;;;;;;6.43;3.78;;;16.90;90.50;;;;;;4774458;29;20099;-68
2021/10/14 09:19:42;;;;;;;12.55;4.47;;;16.90;90.80;;;;;;4772589;30;20094;-68
2021/10/14 09:22:07;;;;;;;7.82;4.00;;;17.00;90.60;;;;;;4775041;30;22326;-69
2021/10/14 09:24:35;;;;;;;9.50;4.30;;;17.10;90.60;;;;;;4772559;30;20481;-67
2021/10/14 09:27:12;;;;;;;7.53;4.25;;;17.20;90.60;;;;;;4771363;30;20505;-67
2021/10/14 09:29:39;;;;;;;11.93;3.90;;;17.30;90.40;;;;;;4773411;30;20047;-68
2021/10/14 09:32:18;;;;;;;6.07;3.95;;;17.40;89.80;;;;;;4776248;30;20052;-68
2021/10/14 09:34:46;;;;;;;7.30;3.42;;;17.50;89.90;;;;;;4772481;30;20039;-68
2021/10/14 09:37:17;;;;;;;6.88;3.58;;;17.60;90.00;;;;;;4774957;29;20063;-67
2021/10/14 09:40:06;;;;;;;5.85;3.40;;;17.60;89.30;;;;;;4774136;30;20062;-67
2021/10/14 09:43:03;;;;;;;7.80;3.92;;;17.70;89.40;;;;;;4775304;29;20063;-70
2021/10/14 09:45:31;;;;;;;8.65;3.58;;;17.90;88.50;;;;;;4775914;30;20052;-71
2021/10/14 09:48:03;;;;;;;6.72;3.53;;;17.90;87.10;;;;;;4780695;30;20052;-69
2021/10/14 09:50:30;;;;;;;8.20;3.28;;;17.90;87.20;;;;;;4773970;30;20062;-71
2021/10/14 09:53:01;;;;;;;10.40;2.83;;;18.00;86.10;;;;;;4777136;30;20163;-67
2021/10/14 09:55:26;;;;;;;7.05;3.10;;;17.90;85.70;;;;;;4774824;30;20173;-67
2021/10/14 09:57:52;;;;;;;7.18;3.90;;;17.80;85.20;;;;;;4775441;30;20122;-67
2021/10/14 10:00:19;;;;;;;6.18;2.80;;;17.80;84.20;;;;;;4777521;30;20126;-67
2021/10/14 10:02:47;;;;;;;5.70;3.22;;;17.60;85.20;;;;;;4775887;30;20502;-67
2021/10/14 10:05:13;;;;;;;7.28;3.08;;;17.60;85.10;;;;;;4776611;30;20043;-67
2021/10/14 10:07:42;;;;;;;7.28;3.28;;;17.60;84.10;;;;;;4776839;30;20568;-68
2021/10/14 10:10:10;;;;;;;4.63;2.80;;;17.50;83.80;;;;;;4778900;30;20187;-68
2021/10/14 10:12:37;;;;;;;5.35;2.30;;;17.40;83.60;;;;;;4776117;30;20885;-68
2021/10/14 10:15:04;;;;;;;6.65;3.38;;;17.30;84.80;;;;;;4760414;30;20055;-68
2021/10/14 10:17:37;;;;;;;10.50;3.60;;;17.30;84.70;;;;;;4775742;30;20059;-67
2021/10/14 10:20:08;;;;;;;7.53;3.42;;;17.30;83.40;;;;;;4775492;30;20401;-67
2021/10/14 10:22:34;;;;;;;10.80;3.30;;;17.20;83.30;;;;;;4774918;30;20065;-67
2021/10/14 10:25:24;;;;;;;7.35;3.40;;;17.10;82.80;;;;;;4773811;30;20043;-67
2021/10/14 10:27:54;;;;;;;5.85;3.35;;;17.00;84.70;;;;;;4774983;30;20430;-67
2021/10/14 10:30:37;;;;;;;7.45;3.65;;;17.00;85.70;;;;;;4775098;30;20065;-67
2021/10/14 10:33:04;;;;;;;11.10;4.32;;;17.00;85.10;;;;;;4775412;30;20114;-67
2021/10/14 10:35:45;;;;;;;6.18;3.85;;;17.00;84.80;;;;;;4776789;30;20455;-67
2021/10/14 10:38:15;;;;;;;13.52;6.57;;;16.90;84.70;;;;;;4775431;30;20040;-67
2021/10/14 10:40:42;;;;;;;10.98;4.60;;;16.80;84.80;;;;;;4773029;30;20062;-67
2021/10/14 10:43:14;;;;;;;8.48;4.40;;;16.80;84.90;;;;;;4788591;29;20053;-68
2021/10/14 10:45:52;;;;;;;8.48;4.65;;;16.80;84.70;;;;;;4773693;30;20044;-67
2021/10/14 10:48:40;;;;;;;7.57;4.20;;;16.70;84.50;;;;;;4773536;29;20054;-67
2021/10/14 10:51:07;;;;;;;7.30;4.63;;;16.60;85.20;;;;;;4776084;30;20058;-67
2021/10/14 10:53:42;;;;;;;6.50;4.07;;;16.60;85.60;;;;;;4774752;30;20046;-66
2021/10/14 10:56:30;;;;;;;9.07;4.70;;;16.60;85.90;;;;;;4775611;30;20066;-66
2021/10/14 10:58:57;;;;;;;7.38;4.05;;;16.70;85.20;;;;;;4775410;30;20405;-68
2021/10/14 11:01:23;;;;;;;11.05;4.72;;;16.70;85.20;;;;;;4776012;30;20062;-68
2021/10/14 11:03:59;;;;;;;5.68;3.58;;;16.70;84.90;;;;;;4774295;30;20175;-68
2021/10/14 11:06:35;;;;;;;5.80;4.00;;;16.80;85.70;;;;;;4779497;30;20069;-68
2021/10/14 11:09:10;;;;;;;6.38;3.30;;;16.90;85.50;;;;;;4774988;30;20047;-68
2021/10/14 11:11:37;;;;;;;6.40;3.95;;;17.00;85.90;;;;;;4773346;30;20050;-68
2021/10/14 11:14:04;;;;;;;5.65;4.20;;;17.10;85.70;;;;;;4777940;30;20189;-68
2021/10/14 11:16:30;;;;;;;7.05;3.60;;;17.10;84.20;;;;;;4771098;30;20397;-69
2021/10/14 11:18:58;;;;;;;6.43;3.55;;;17.10;83.50;;;;;;4773654;29;20092;-68
2021/10/14 11:21:28;;;;;;;6.15;3.40;;;17.00;83.10;;;;;;4779011;30;20126;-68
2021/10/14 11:23:56;;;;;;;9.90;4.22;;;17.00;82.60;;;;;;4779182;30;20047;-68
2021/10/14 11:26:38;;;;;;;9.63;4.25;;;16.90;82.60;;;;;;4772796;30;20075;-67
2021/10/14 11:29:20;;;;;;;5.63;3.97;;;16.90;83.10;;;;;;4774074;30;20487;-67
2021/10/14 11:32:03;;;;;;;6.30;3.72;;;16.80;82.80;;;;;;4774274;30;20505;-68
2021/10/14 11:34:29;;;;;;;8.98;3.40;;;16.70;83.20;;;;;;4744540;30;20047;-68
2021/10/14 11:37:13;;;;;;;7.00;3.25;;;16.70;83.60;;;;;;4774654;30;20384;-68
2021/10/14 11:39:43;;;;;;;5.85;3.60;;;16.70;83.10;;;;;;4774221;30;20136;-67
2021/10/14 11:42:14;;;;;;;6.13;2.33;;;16.60;84.10;;;;;;4776381;29;20047;-67
2021/10/14 11:44:49;;;;;;;5.32;2.90;;;16.60;84.20;;;;;;4793027;29;20416;-67
2021/10/14 11:47:16;;;;;;;5.05;2.10;;;16.60;84.00;;;;;;4789563;29;20183;-67
2021/10/14 11:49:43;;;;;;;7.47;2.25;;;16.70;83.50;;;;;;4791534;29;20047;-67
2021/10/14 11:52:11;;;;;;;6.22;2.70;;;16.60;82.90;;;;;;4791704;29;20047;-67
2021/10/14 11:54:38;;;;;;;5.90;2.22;;;16.70;83.00;;;;;;4776133;29;20047;-67
2021/10/14 11:57:06;;;;;;;9.50;2.55;;;16.80;83.40;;;;;;4760684;29;20039;-68
2021/10/14 11:59:33;;;;;;;4.32;2.28;;;16.80;82.80;;;;;;4791368;29;20074;-67
2021/10/14 12:02:04;;;;;;;6.13;2.10;;;16.80;82.70;;;;;;4792216;29;20055;-67
2021/10/14 12:04:35;;;;;;;9.45;3.10;;;16.80;82.60;;;;;;4792525;29;20071;-67
2021/10/14 12:07:02;;;;;;;7.60;2.08;;;16.90;82.80;;;;;;4792614;29;20204;-67
2021/10/14 12:09:28;;;;;;;4.68;2.20;;;16.80;82.70;;;;;;4792156;29;20050;-68
2021/10/14 12:12:03;;;;;;;7.75;2.53;;;16.70;82.90;;;;;;4760925;29;20046;-67
2021/10/14 12:14:29;;;;;;;4.57;1.98;;;16.70;83.40;;;;;;4775237;29;20047;-67
2021/10/14 12:17:10;;;;;;;7.30;2.70;;;16.90;84.60;;;;;;4780326;29;21871;-68
2021/10/14 12:19:42;;;;;;;5.18;1.98;;;17.00;83.50;;;;;;4791872;29;20567;-67
2021/10/14 12:22:09;;;;;;;6.40;1.98;;;17.00;83.20;;;;;;4790974;29;20501;-67
2021/10/14 12:24:53;;;;;;;6.50;2.40;;;17.10;83.70;;;;;;4791035;29;20071;-67
2021/10/14 12:27:19;;;;;;;6.43;2.22;;;17.10;83.30;;;;;;4774678;29;20050;-67
2021/10/14 12:29:46;;;;;;;6.22;2.20;;;17.00;82.40;;;;;;4790917;29;20369;-68
2021/10/14 12:32:17;;;;;;;8.40;2.40;;;17.00;82.10;;;;;;4775013;29;20058;-68
2021/10/14 12:34:57;;;;;;;6.30;2.40;;;17.00;82.30;;;;;;4775054;29;20065;-67
2021/10/14 12:37:42;;;;;;;4.78;2.40;;;17.00;82.00;;;;;;4784278;29;20047;-67
2021/10/14 12:40:20;;;;;;;4.57;2.08;;;17.10;82.60;;;;;;4780296;29;20488;-67
2021/10/14 12:43:12;;;;;;;7.38;2.08;;;17.10;82.10;;;;;;4779681;29;20059;-68
2021/10/14 12:53:47;;;;;;;4.63;2.17;;;17.10;80.50;;;;;;4791103;29;20047;-67
2021/10/14 12:56:17;;;;;;;5.03;2.00;;;17.10;81.10;;;;;;4791611;29;20054;-67